sensor_id;sensor_type;location;lat;lon;timestamp;pressure;altitude;pressure_sealevel;temperature;humidity
29467;BME280;60968;37.490;-122.288;2023-07-20T00:02:34;98748.53;;;22.98;57.13
29467;BME280;60968;37.490;-122.288;2023-07-20T00:05:35;98753.44;;;22.78;57.43
29467;BME280;60968;37.490;-122.288;2023-07-20T00:08:36;98756.03;;;22.12;60.09
29467;BME280;60968;37.490;-122.288;2023-07-20T00:11:39;98752.88;;;22.20;60.38
29467;BME280;60968;37.490;-122.288;2023-07-20T00:14:39;98751.88;;;22.35;60.27
29467;BME280;60968;37.490;-122.288;2023-07-20T00:17:40;98755.09;;;22.40;60.08
29467;BME280;60968;37.490;-122.288;2023-07-20T00:20:41;98752.56;;;22.24;60.74
29467;BME280;60968;37.490;-122.288;2023-07-20T00:23:42;98747.22;;;22.39;59.90
29467;BME280;60968;37.490;-122.288;2023-07-20T00:26:43;98752.91;;;22.33;60.05
29467;BME280;60968;37.490;-122.288;2023-07-20T00:29:44;98753.19;;;22.68;59.78
29467;BME280;60968;37.490;-122.288;2023-07-20T00:32:45;98749.50;;;23.09;58.68
29467;BME280;60968;37.490;-122.288;2023-07-20T00:35:46;98744.91;;;23.37;57.85
29467;BME280;60968;37.490;-122.288;2023-07-20T00:38:47;98744.16;;;23.48;57.67
29467;BME280;60968;37.490;-122.288;2023-07-20T00:41:47;98747.13;;;23.56;57.72
29467;BME280;60968;37.490;-122.288;2023-07-20T00:44:48;98749.19;;;23.77;57.17
29467;BME280;60968;37.490;-122.288;2023-07-20T00:47:49;98743.09;;;23.88;57.03
29467;BME280;60968;37.490;-122.288;2023-07-20T00:50:50;98741.38;;;23.87;56.83
29467;BME280;60968;37.490;-122.288;2023-07-20T00:53:53;98742.66;;;23.94;56.32
29467;BME280;60968;37.490;-122.288;2023-07-20T00:56:54;98744.47;;;23.80;56.27
29467;BME280;60968;37.490;-122.288;2023-07-20T00:59:55;98738.38;;;23.67;56.60
29467;BME280;60968;37.490;-122.288;2023-07-20T01:02:56;98738.53;;;23.77;56.43
29467;BME280;60968;37.490;-122.288;2023-07-20T01:09:17;98739.97;;;23.57;56.60
29467;BME280;60968;37.490;-122.288;2023-07-20T01:12:27;98735.38;;;23.35;56.80
29467;BME280;60968;37.490;-122.288;2023-07-20T01:15:33;98741.22;;;23.01;57.98
29467;BME280;60968;37.490;-122.288;2023-07-20T01:18:34;98740.47;;;22.99;58.08
29467;BME280;60968;37.490;-122.288;2023-07-20T01:21:41;98731.75;;;22.97;59.04
29467;BME280;60968;37.490;-122.288;2023-07-20T01:31:43;98740.16;;;23.04;58.61
29467;BME280;60968;37.490;-122.288;2023-07-20T01:34:45;98742.78;;;22.91;58.39
29467;BME280;60968;37.490;-122.288;2023-07-20T01:37:48;98748.47;;;22.33;59.33
29467;BME280;60968;37.490;-122.288;2023-07-20T01:40:50;98748.81;;;21.87;60.74
29467;BME280;60968;37.490;-122.288;2023-07-20T01:43:51;98755.25;;;21.55;62.21
29467;BME280;60968;37.490;-122.288;2023-07-20T01:46:52;98750.41;;;21.48;63.71
29467;BME280;60968;37.490;-122.288;2023-07-20T01:49:53;98752.81;;;21.52;63.89
29467;BME280;60968;37.490;-122.288;2023-07-20T01:52:54;98758.56;;;21.59;63.32
29467;BME280;60968;37.490;-122.288;2023-07-20T01:55:56;98758.84;;;21.54;64.08
29467;BME280;60968;37.490;-122.288;2023-07-20T01:58:57;98761.38;;;21.56;63.95
29467;BME280;60968;37.490;-122.288;2023-07-20T02:01:58;98761.38;;;21.56;63.89
29467;BME280;60968;37.490;-122.288;2023-07-20T02:04:59;98756.47;;;21.50;64.22
29467;BME280;60968;37.490;-122.288;2023-07-20T02:08:00;98757.78;;;21.42;64.72
29467;BME280;60968;37.490;-122.288;2023-07-20T02:11:00;98758.00;;;21.39;65.07
29467;BME280;60968;37.490;-122.288;2023-07-20T02:14:01;98760.75;;;21.38;65.38
29467;BME280;60968;37.490;-122.288;2023-07-20T02:17:02;98763.84;;;21.30;65.59
29467;BME280;60968;37.490;-122.288;2023-07-20T02:20:03;98753.06;;;21.19;65.55
29467;BME280;60968;37.490;-122.288;2023-07-20T02:23:04;98761.13;;;21.03;66.36
29467;BME280;60968;37.490;-122.288;2023-07-20T02:26:05;98764.03;;;20.98;66.60
29467;BME280;60968;37.490;-122.288;2023-07-20T02:29:06;98774.19;;;20.92;67.03
29467;BME280;60968;37.490;-122.288;2023-07-20T02:32:07;98774.72;;;20.82;66.83
29467;BME280;60968;37.490;-122.288;2023-07-20T02:35:08;98770.75;;;20.75;66.78
29467;BME280;60968;37.490;-122.288;2023-07-20T02:38:09;98768.69;;;20.64;66.65
29467;BME280;60968;37.490;-122.288;2023-07-20T02:41:10;98771.50;;;20.47;67.76
29467;BME280;60968;37.490;-122.288;2023-07-20T02:44:11;98772.94;;;20.36;68.61
29467;BME280;60968;37.490;-122.288;2023-07-20T02:47:12;98780.19;;;20.18;68.76
29467;BME280;60968;37.490;-122.288;2023-07-20T02:50:13;98779.34;;;20.02;70.43
29467;BME280;60968;37.490;-122.288;2023-07-20T02:53:13;98774.06;;;20.02;70.76
29467;BME280;60968;37.490;-122.288;2023-07-20T02:56:14;98773.72;;;19.92;71.31
29467;BME280;60968;37.490;-122.288;2023-07-20T02:59:15;98771.59;;;19.83;71.72
29467;BME280;60968;37.490;-122.288;2023-07-20T03:02:16;98766.81;;;19.74;72.11
29467;BME280;60968;37.490;-122.288;2023-07-20T03:05:17;98778.47;;;19.69;72.82
29467;BME280;60968;37.490;-122.288;2023-07-20T03:08:17;98782.50;;;19.61;73.53
29467;BME280;60968;37.490;-122.288;2023-07-20T03:11:19;98781.34;;;19.49;74.63
29467;BME280;60968;37.490;-122.288;2023-07-20T03:14:20;98778.63;;;19.50;74.82
29467;BME280;60968;37.490;-122.288;2023-07-20T03:17:21;98780.59;;;19.47;75.19
29467;BME280;60968;37.490;-122.288;2023-07-20T03:20:22;98785.53;;;19.53;75.08
29467;BME280;60968;37.490;-122.288;2023-07-20T03:23:23;98790.56;;;19.42;76.05
29467;BME280;60968;37.490;-122.288;2023-07-20T03:26:24;98792.84;;;19.32;77.00
29467;BME280;60968;37.490;-122.288;2023-07-20T03:29:25;98788.81;;;19.25;77.13
29467;BME280;60968;37.490;-122.288;2023-07-20T03:32:26;98794.06;;;19.09;77.80
29467;BME280;60968;37.490;-122.288;2023-07-20T03:35:26;98797.31;;;18.79;77.38
29467;BME280;60968;37.490;-122.288;2023-07-20T03:38:27;98800.19;;;18.03;78.77
29467;BME280;60968;37.490;-122.288;2023-07-20T03:41:28;98802.59;;;17.31;82.51
29467;BME280;60968;37.490;-122.288;2023-07-20T03:44:29;98803.63;;;17.08;84.40
29467;BME280;60968;37.490;-122.288;2023-07-20T03:47:30;98806.13;;;16.90;86.18
29467;BME280;60968;37.490;-122.288;2023-07-20T03:50:31;98808.63;;;16.73;87.99
29467;BME280;60968;37.490;-122.288;2023-07-20T03:53:32;98809.22;;;16.79;88.71
29467;BME280;60968;37.490;-122.288;2023-07-20T03:56:32;98812.34;;;16.89;90.46
29467;BME280;60968;37.490;-122.288;2023-07-20T03:59:33;98818.69;;;17.04;92.53
29467;BME280;60968;37.490;-122.288;2023-07-20T04:02:34;98825.00;;;17.21;91.63
29467;BME280;60968;37.490;-122.288;2023-07-20T04:05:35;98822.66;;;17.14;91.59
29467;BME280;60968;37.490;-122.288;2023-07-20T04:08:36;98823.88;;;17.06;93.48
29467;BME280;60968;37.490;-122.288;2023-07-20T04:11:37;98820.13;;;17.11;93.66
29467;BME280;60968;37.490;-122.288;2023-07-20T04:14:38;98831.13;;;17.21;93.20
29467;BME280;60968;37.490;-122.288;2023-07-20T04:17:39;98825.28;;;17.14;93.93
29467;BME280;60968;37.490;-122.288;2023-07-20T04:20:40;98826.53;;;17.06;95.71
29467;BME280;60968;37.490;-122.288;2023-07-20T04:23:41;98834.53;;;17.23;94.57
29467;BME280;60968;37.490;-122.288;2023-07-20T04:26:42;98836.75;;;17.32;93.11
29467;BME280;60968;37.490;-122.288;2023-07-20T04:29:43;98841.97;;;17.34;93.10
29467;BME280;60968;37.490;-122.288;2023-07-20T04:32:44;98853.50;;;17.31;91.66
29467;BME280;60968;37.490;-122.288;2023-07-20T04:35:52;98850.59;;;17.17;92.00
29467;BME280;60968;37.490;-122.288;2023-07-20T04:38:53;98853.31;;;17.15;91.16
29467;BME280;60968;37.490;-122.288;2023-07-20T04:41:54;98856.00;;;17.14;91.06
29467;BME280;60968;37.490;-122.288;2023-07-20T04:44:55;98867.66;;;17.08;90.99
29467;BME280;60968;37.490;-122.288;2023-07-20T04:47:56;98859.13;;;16.81;92.49
29467;BME280;60968;37.490;-122.288;2023-07-20T04:50:57;98863.31;;;16.64;93.50
29467;BME280;60968;37.490;-122.288;2023-07-20T04:53:58;98864.28;;;16.62;92.88
29467;BME280;60968;37.490;-122.288;2023-07-20T04:56:58;98859.50;;;16.51;94.48
29467;BME280;60968;37.490;-122.288;2023-07-20T04:59:59;98862.22;;;16.48;94.57
29467;BME280;60968;37.490;-122.288;2023-07-20T05:03:00;98854.91;;;16.34;96.18
29467;BME280;60968;37.490;-122.288;2023-07-20T05:06:01;98859.19;;;16.15;98.06
29467;BME280;60968;37.490;-122.288;2023-07-20T05:09:03;98862.88;;;16.10;98.49
29467;BME280;60968;37.490;-122.288;2023-07-20T05:12:04;98866.59;;;16.05;99.43
29467;BME280;60968;37.490;-122.288;2023-07-20T05:15:05;98867.97;;;15.91;100.00
29467;BME280;60968;37.490;-122.288;2023-07-20T05:18:06;98871.75;;;15.84;98.52
29467;BME280;60968;37.490;-122.288;2023-07-20T05:21:07;98872.84;;;15.53;99.95
29467;BME280;60968;37.490;-122.288;2023-07-20T05:24:08;98876.09;;;15.36;100.00
29467;BME280;60968;37.490;-122.288;2023-07-20T05:27:09;98885.16;;;15.27;100.00
29467;BME280;60968;37.490;-122.288;2023-07-20T05:30:11;98884.44;;;15.22;100.00
29467;BME280;60968;37.490;-122.288;2023-07-20T05:33:12;98884.69;;;15.16;100.00
29467;BME280;60968;37.490;-122.288;2023-07-20T05:36:12;98881.88;;;15.21;100.00
29467;BME280;60968;37.490;-122.288;2023-07-20T05:39:13;98884.50;;;15.21;100.00
29467;BME280;60968;37.490;-122.288;2023-07-20T05:42:14;98882.78;;;15.20;100.00
29467;BME280;60968;37.490;-122.288;2023-07-20T05:45:15;98883.91;;;15.13;100.00
29467;BME280;60968;37.490;-122.288;2023-07-20T05:48:16;98884.19;;;15.05;100.00
29467;BME280;60968;37.490;-122.288;2023-07-20T05:51:17;98880.03;;;14.98;100.00
29467;BME280;60968;37.490;-122.288;2023-07-20T05:54:17;98878.47;;;14.94;100.00
29467;BME280;60968;37.490;-122.288;2023-07-20T05:57:18;98881.59;;;14.78;100.00
29467;BME280;60968;37.490;-122.288;2023-07-20T06:00:19;98884.72;;;14.63;100.00
29467;BME280;60968;37.490;-122.288;2023-07-20T06:03:20;98879.47;;;14.61;100.00
29467;BME280;60968;37.490;-122.288;2023-07-20T06:06:21;98882.97;;;14.63;100.00
29467;BME280;60968;37.490;-122.288;2023-07-20T06:09:22;98878.97;;;14.50;100.00
29467;BME280;60968;37.490;-122.288;2023-07-20T06:12:24;98881.75;;;14.45;100.00
29467;BME280;60968;37.490;-122.288;2023-07-20T06:15:31;98875.94;;;14.35;100.00
29467;BME280;60968;37.490;-122.288;2023-07-20T06:18:31;98870.03;;;14.29;100.00
29467;BME280;60968;37.490;-122.288;2023-07-20T06:21:32;98869.28;;;14.25;100.00
29467;BME280;60968;37.490;-122.288;2023-07-20T06:24:33;98870.06;;;14.27;100.00
29467;BME280;60968;37.490;-122.288;2023-07-20T06:27:34;98876.47;;;14.18;100.00
29467;BME280;60968;37.490;-122.288;2023-07-20T06:30:35;98877.19;;;14.23;100.00
29467;BME280;60968;37.490;-122.288;2023-07-20T06:33:36;98881.63;;;14.21;100.00
29467;BME280;60968;37.490;-122.288;2023-07-20T06:36:36;98879.91;;;14.20;100.00
29467;BME280;60968;37.490;-122.288;2023-07-20T06:39:37;98886.06;;;14.19;100.00
29467;BME280;60968;37.490;-122.288;2023-07-20T06:42:38;98876.56;;;14.15;100.00
29467;BME280;60968;37.490;-122.288;2023-07-20T06:45:39;98871.91;;;13.97;100.00
29467;BME280;60968;37.490;-122.288;2023-07-20T06:48:40;98878.22;;;13.89;100.00
29467;BME280;60968;37.490;-122.288;2023-07-20T06:51:41;98874.00;;;13.85;100.00
29467;BME280;60968;37.490;-122.288;2023-07-20T06:54:42;98876.03;;;13.76;100.00
29467;BME280;60968;37.490;-122.288;2023-07-20T06:57:42;98873.31;;;13.79;100.00
29467;BME280;60968;37.490;-122.288;2023-07-20T07:00:43;98876.06;;;13.74;100.00
29467;BME280;60968;37.490;-122.288;2023-07-20T07:03:44;98875.13;;;13.75;100.00
29467;BME280;60968;37.490;-122.288;2023-07-20T07:06:45;98875.03;;;13.78;100.00
29467;BME280;60968;37.490;-122.288;2023-07-20T07:09:46;98876.97;;;13.73;100.00
29467;BME280;60968;37.490;-122.288;2023-07-20T07:12:46;98874.34;;;13.73;100.00
29467;BME280;60968;37.490;-122.288;2023-07-20T07:15:47;98880.56;;;13.69;100.00
29467;BME280;60968;37.490;-122.288;2023-07-20T07:18:50;98877.59;;;13.81;100.00
29467;BME280;60968;37.490;-122.288;2023-07-20T07:21:51;98881.97;;;13.81;100.00
29467;BME280;60968;37.490;-122.288;2023-07-20T07:24:52;98883.19;;;13.99;100.00
29467;BME280;60968;37.490;-122.288;2023-07-20T07:27:54;98883.84;;;14.05;100.00
29467;BME280;60968;37.490;-122.288;2023-07-20T07:30:55;98877.78;;;14.03;100.00
29467;BME280;60968;37.490;-122.288;2023-07-20T07:33:56;98889.00;;;14.09;100.00
29467;BME280;60968;37.490;-122.288;2023-07-20T07:36:57;98889.03;;;14.07;100.00
29467;BME280;60968;37.490;-122.288;2023-07-20T07:39:58;98888.41;;;13.99;100.00
29467;BME280;60968;37.490;-122.288;2023-07-20T07:42:59;98884.91;;;14.00;100.00
29467;BME280;60968;37.490;-122.288;2023-07-20T07:46:00;98885.91;;;13.96;100.00
29467;BME280;60968;37.490;-122.288;2023-07-20T07:49:01;98878.25;;;13.88;100.00
29467;BME280;60968;37.490;-122.288;2023-07-20T07:52:02;98876.59;;;13.85;100.00
29467;BME280;60968;37.490;-122.288;2023-07-20T07:55:03;98874.06;;;13.82;100.00
29467;BME280;60968;37.490;-122.288;2023-07-20T07:58:04;98867.25;;;13.77;100.00
29467;BME280;60968;37.490;-122.288;2023-07-20T08:01:04;98868.22;;;13.74;100.00
29467;BME280;60968;37.490;-122.288;2023-07-20T08:04:05;98865.66;;;13.71;100.00
29467;BME280;60968;37.490;-122.288;2023-07-20T08:07:06;98869.19;;;13.70;100.00
29467;BME280;60968;37.490;-122.288;2023-07-20T08:10:07;98871.13;;;13.63;100.00
29467;BME280;60968;37.490;-122.288;2023-07-20T08:13:08;98878.16;;;13.61;100.00
29467;BME280;60968;37.490;-122.288;2023-07-20T08:16:09;98882.59;;;13.59;100.00
29467;BME280;60968;37.490;-122.288;2023-07-20T08:19:11;98869.78;;;13.48;100.00
29467;BME280;60968;37.490;-122.288;2023-07-20T08:22:12;98878.78;;;13.40;100.00
29467;BME280;60968;37.490;-122.288;2023-07-20T08:25:13;98875.06;;;13.47;100.00
29467;BME280;60968;37.490;-122.288;2023-07-20T08:28:14;98877.97;;;13.36;100.00
29467;BME280;60968;37.490;-122.288;2023-07-20T08:31:15;98872.84;;;13.31;100.00
29467;BME280;60968;37.490;-122.288;2023-07-20T08:34:16;98874.63;;;13.31;100.00
29467;BME280;60968;37.490;-122.288;2023-07-20T08:37:17;98867.66;;;13.30;100.00
29467;BME280;60968;37.490;-122.288;2023-07-20T08:40:18;98868.44;;;13.35;100.00
29467;BME280;60968;37.490;-122.288;2023-07-20T08:43:19;98862.38;;;13.31;100.00
29467;BME280;60968;37.490;-122.288;2023-07-20T08:46:20;98853.78;;;13.28;100.00
29467;BME280;60968;37.490;-122.288;2023-07-20T08:49:23;98857.25;;;13.28;100.00
29467;BME280;60968;37.490;-122.288;2023-07-20T08:52:24;98852.22;;;13.20;100.00
29467;BME280;60968;37.490;-122.288;2023-07-20T08:55:28;98854.63;;;13.28;100.00
29467;BME280;60968;37.490;-122.288;2023-07-20T08:58:30;98854.63;;;13.28;100.00
29467;BME280;60968;37.490;-122.288;2023-07-20T09:01:31;98854.69;;;13.27;100.00
29467;BME280;60968;37.490;-122.288;2023-07-20T09:04:32;98849.25;;;13.33;100.00
29467;BME280;60968;37.490;-122.288;2023-07-20T09:07:35;98851.06;;;13.31;100.00
29467;BME280;60968;37.490;-122.288;2023-07-20T09:10:36;98843.47;;;13.21;100.00
29467;BME280;60968;37.490;-122.288;2023-07-20T09:13:38;98846.81;;;13.27;100.00
29467;BME280;60968;37.490;-122.288;2023-07-20T09:16:54;98846.72;;;13.30;100.00
29467;BME280;60968;37.490;-122.288;2023-07-20T09:19:55;98845.28;;;13.19;100.00
29467;BME280;60968;37.490;-122.288;2023-07-20T09:22:56;98847.81;;;13.23;100.00
29467;BME280;60968;37.490;-122.288;2023-07-20T09:25:57;98845.06;;;13.27;100.00
29467;BME280;60968;37.490;-122.288;2023-07-20T09:28:58;98844.06;;;13.31;100.00
29467;BME280;60968;37.490;-122.288;2023-07-20T09:31:59;98851.66;;;13.42;100.00
29467;BME280;60968;37.490;-122.288;2023-07-20T09:35:00;98857.69;;;13.44;100.00
29467;BME280;60968;37.490;-122.288;2023-07-20T09:38:01;98845.53;;;13.43;100.00
29467;BME280;60968;37.490;-122.288;2023-07-20T09:41:02;98854.28;;;13.42;100.00
29467;BME280;60968;37.490;-122.288;2023-07-20T09:44:05;98836.69;;;13.47;100.00
29467;BME280;60968;37.490;-122.288;2023-07-20T09:47:07;98838.22;;;13.54;100.00
29467;BME280;60968;37.490;-122.288;2023-07-20T09:50:08;98839.88;;;13.59;100.00
29467;BME280;60968;37.490;-122.288;2023-07-20T09:53:12;98843.53;;;13.51;100.00
29467;BME280;60968;37.490;-122.288;2023-07-20T09:56:14;98836.56;;;13.52;100.00
29467;BME280;60968;37.490;-122.288;2023-07-20T09:59:17;98834.56;;;13.60;100.00
29467;BME280;60968;37.490;-122.288;2023-07-20T10:02:25;98838.03;;;13.61;100.00
29467;BME280;60968;37.490;-122.288;2023-07-20T10:05:28;98835.41;;;13.61;100.00
29467;BME280;60968;37.490;-122.288;2023-07-20T10:08:36;98843.19;;;13.64;100.00
29467;BME280;60968;37.490;-122.288;2023-07-20T10:11:41;98833.78;;;13.57;100.00
29467;BME280;60968;37.490;-122.288;2023-07-20T10:14:53;98838.03;;;13.61;100.00
29467;BME280;60968;37.490;-122.288;2023-07-20T10:21:37;98834.47;;;13.63;100.00
29467;BME280;60968;37.490;-122.288;2023-07-20T10:24:44;98833.59;;;13.63;100.00
29467;BME280;60968;37.490;-122.288;2023-07-20T10:27:45;98831.56;;;13.72;100.00
29467;BME280;60968;37.490;-122.288;2023-07-20T10:30:47;98829.00;;;13.71;100.00
29467;BME280;60968;37.490;-122.288;2023-07-20T10:33:48;98830.53;;;13.78;100.00
29467;BME280;60968;37.490;-122.288;2023-07-20T10:36:49;98832.16;;;13.82;100.00
29467;BME280;60968;37.490;-122.288;2023-07-20T10:39:50;98823.13;;;13.93;100.00
29467;BME280;60968;37.490;-122.288;2023-07-20T10:43:03;98825.22;;;13.81;100.00
29467;BME280;60968;37.490;-122.288;2023-07-20T10:46:03;98828.00;;;13.75;100.00
29467;BME280;60968;37.490;-122.288;2023-07-20T10:49:07;98829.09;;;13.68;100.00
29467;BME280;60968;37.490;-122.288;2023-07-20T10:52:10;98831.03;;;13.61;100.00
29467;BME280;60968;37.490;-122.288;2023-07-20T10:55:15;98835.31;;;13.64;100.00
29467;BME280;60968;37.490;-122.288;2023-07-20T10:58:16;98828.94;;;13.72;100.00
29467;BME280;60968;37.490;-122.288;2023-07-20T11:01:17;98826.78;;;13.59;100.00
29467;BME280;60968;37.490;-122.288;2023-07-20T11:04:18;98824.25;;;13.54;100.00
29467;BME280;60968;37.490;-122.288;2023-07-20T11:07:37;98821.84;;;13.48;100.00
29467;BME280;60968;37.490;-122.288;2023-07-20T11:10:39;98821.16;;;13.41;100.00
29467;BME280;60968;37.490;-122.288;2023-07-20T11:17:11;98825.84;;;13.60;100.00
29467;BME280;60968;37.490;-122.288;2023-07-20T11:20:12;98826.16;;;13.79;100.00
29467;BME280;60968;37.490;-122.288;2023-07-20T11:23:14;98817.06;;;13.90;100.00
29467;BME280;60968;37.490;-122.288;2023-07-20T11:26:16;98829.06;;;13.98;100.00
29467;BME280;60968;37.490;-122.288;2023-07-20T11:29:18;98823.13;;;13.93;100.00
29467;BME280;60968;37.490;-122.288;2023-07-20T11:32:23;98820.50;;;13.93;100.00
29467;BME280;60968;37.490;-122.288;2023-07-20T11:35:24;98833.94;;;13.82;100.00
29467;BME280;60968;37.490;-122.288;2023-07-20T11:38:25;98825.28;;;13.78;100.00
29467;BME280;60968;37.490;-122.288;2023-07-20T11:41:26;98819.56;;;13.65;100.00
29467;BME280;60968;37.490;-122.288;2023-07-20T11:44:28;98817.00;;;13.64;100.00
29467;BME280;60968;37.490;-122.288;2023-07-20T11:47:29;98815.84;;;13.74;100.00
29467;BME280;60968;37.490;-122.288;2023-07-20T11:50:30;98808.72;;;13.49;100.00
29467;BME280;60968;37.490;-122.288;2023-07-20T11:53:31;98808.91;;;13.42;100.00
29467;BME280;60968;37.490;-122.288;2023-07-20T11:56:32;98812.63;;;13.33;100.00
29467;BME280;60968;37.490;-122.288;2023-07-20T11:59:33;98820.56;;;13.30;100.00
29467;BME280;60968;37.490;-122.288;2023-07-20T12:02:34;98821.16;;;13.41;100.00
29467;BME280;60968;37.490;-122.288;2023-07-20T12:05:37;98824.47;;;13.48;100.00
29467;BME280;60968;37.490;-122.288;2023-07-20T12:08:39;98823.88;;;13.68;100.00
29467;BME280;60968;37.490;-122.288;2023-07-20T12:11:43;98826.47;;;13.68;100.00
29467;BME280;60968;37.490;-122.288;2023-07-20T12:14:46;98824.00;;;13.63;100.00
29467;BME280;60968;37.490;-122.288;2023-07-20T12:17:50;98815.56;;;13.53;100.00
29467;BME280;60968;37.490;-122.288;2023-07-20T12:20:58;98816.47;;;13.52;100.00
29467;BME280;60968;37.490;-122.288;2023-07-20T12:23:59;98821.06;;;13.44;100.00
29467;BME280;60968;37.490;-122.288;2023-07-20T12:27:00;98822.03;;;13.40;100.00
29467;BME280;60968;37.490;-122.288;2023-07-20T12:30:01;98823.03;;;13.34;100.00
29467;BME280;60968;37.490;-122.288;2023-07-20T12:33:03;98832.44;;;13.43;100.00
29467;BME280;60968;37.490;-122.288;2023-07-20T12:36:04;98831.63;;;13.41;100.00
29467;BME280;60968;37.490;-122.288;2023-07-20T12:39:05;98836.94;;;13.38;100.00
29467;BME280;60968;37.490;-122.288;2023-07-20T12:42:06;98841.44;;;13.31;100.00
29467;BME280;60968;37.490;-122.288;2023-07-20T12:45:07;98840.50;;;13.34;100.00
29467;BME280;60968;37.490;-122.288;2023-07-20T12:48:08;98859.13;;;13.23;100.00
29467;BME280;60968;37.490;-122.288;2023-07-20T12:51:09;98853.59;;;13.34;100.00
29467;BME280;60968;37.490;-122.288;2023-07-20T12:54:10;98865.06;;;13.30;100.00
29467;BME280;60968;37.490;-122.288;2023-07-20T12:57:11;98858.31;;;13.21;100.00
29467;BME280;60968;37.490;-122.288;2023-07-20T13:00:14;98858.09;;;13.29;100.00
29467;BME280;60968;37.490;-122.288;2023-07-20T13:03:15;98863.31;;;13.29;100.00
29467;BME280;60968;37.490;-122.288;2023-07-20T13:06:16;98865.88;;;13.32;100.00
29467;BME280;60968;37.490;-122.288;2023-07-20T13:09:17;98865.13;;;13.27;100.00
29467;BME280;60968;37.490;-122.288;2023-07-20T13:12:18;98868.16;;;13.11;100.00
29467;BME280;60968;37.490;-122.288;2023-07-20T13:15:19;98869.34;;;12.99;100.00
29467;BME280;60968;37.490;-122.288;2023-07-20T13:18:21;98871.84;;;13.04;100.00
29467;BME280;60968;37.490;-122.288;2023-07-20T13:21:22;98868.63;;;12.94;100.00
29467;BME280;60968;37.490;-122.288;2023-07-20T13:24:22;98869.50;;;12.93;100.00
29467;BME280;60968;37.490;-122.288;2023-07-20T13:27:23;98867.72;;;12.95;100.00
29467;BME280;60968;37.490;-122.288;2023-07-20T13:30:24;98867.69;;;12.97;100.00
29467;BME280;60968;37.490;-122.288;2023-07-20T13:33:25;98872.03;;;12.96;100.00
29467;BME280;60968;37.490;-122.288;2023-07-20T13:36:26;98877.00;;;12.73;100.00
29467;BME280;60968;37.490;-122.288;2023-07-20T13:39:27;98882.72;;;12.89;100.00
29467;BME280;60968;37.490;-122.288;2023-07-20T13:42:27;98885.19;;;12.93;100.00
29467;BME280;60968;37.490;-122.288;2023-07-20T13:45:28;98885.41;;;12.84;100.00
29467;BME280;60968;37.490;-122.288;2023-07-20T13:48:29;98887.78;;;12.95;100.00
29467;BME280;60968;37.490;-122.288;2023-07-20T13:51:30;98887.59;;;13.02;100.00
29467;BME280;60968;37.490;-122.288;2023-07-20T13:54:31;98885.88;;;13.01;100.00
29467;BME280;60968;37.490;-122.288;2023-07-20T13:57:31;98887.78;;;12.95;100.00
29467;BME280;60968;37.490;-122.288;2023-07-20T14:00:32;98884.97;;;13.02;100.00
29467;BME280;60968;37.490;-122.288;2023-07-20T14:03:33;98892.59;;;13.10;100.00
29467;BME280;60968;37.490;-122.288;2023-07-20T14:06:35;98893.25;;;13.18;100.00
29467;BME280;60968;37.490;-122.288;2023-07-20T14:09:35;98894.66;;;13.32;100.00
29467;BME280;60968;37.490;-122.288;2023-07-20T14:12:36;98894.47;;;13.40;100.00
29467;BME280;60968;37.490;-122.288;2023-07-20T14:15:38;98897.66;;;13.51;100.00
29467;BME280;60968;37.490;-122.288;2023-07-20T14:18:39;98901.06;;;13.54;100.00
29467;BME280;60968;37.490;-122.288;2023-07-20T14:21:41;98906.63;;;13.42;100.00
29467;BME280;60968;37.490;-122.288;2023-07-20T14:24:42;98901.47;;;13.39;100.00
29467;BME280;60968;37.490;-122.288;2023-07-20T14:27:42;98901.16;;;13.50;100.00
29467;BME280;60968;37.490;-122.288;2023-07-20T14:30:43;98908.81;;;13.58;100.00
29467;BME280;60968;37.490;-122.288;2023-07-20T14:33:44;98902.63;;;13.60;100.00
29467;BME280;60968;37.490;-122.288;2023-07-20T14:36:45;98908.91;;;13.54;100.00
29467;BME280;60968;37.490;-122.288;2023-07-20T14:39:46;98906.25;;;13.56;100.00
29467;BME280;60968;37.490;-122.288;2023-07-20T14:42:47;98907.00;;;13.60;100.00
29467;BME280;60968;37.490;-122.288;2023-07-20T14:45:48;98917.69;;;13.83;100.00
29467;BME280;60968;37.490;-122.288;2023-07-20T14:48:49;98920.19;;;13.86;100.00
29467;BME280;60968;37.490;-122.288;2023-07-20T14:51:49;98906.22;;;13.87;100.00
29467;BME280;60968;37.490;-122.288;2023-07-20T14:54:50;98916.75;;;13.86;100.00
29467;BME280;60968;37.490;-122.288;2023-07-20T14:57:51;98911.25;;;13.95;100.00
29467;BME280;60968;37.490;-122.288;2023-07-20T15:00:52;98915.03;;;14.13;100.00
29467;BME280;60968;37.490;-122.288;2023-07-20T15:03:54;98918.66;;;14.11;100.00
29467;BME280;60968;37.490;-122.288;2023-07-20T15:06:55;98917.25;;;14.27;100.00
29467;BME280;60968;37.490;-122.288;2023-07-20T15:09:56;98922.44;;;14.29;100.00
29467;BME280;60968;37.490;-122.288;2023-07-20T15:12:57;98920.66;;;14.31;100.00
29467;BME280;60968;37.490;-122.288;2023-07-20T15:15:57;98921.91;;;14.46;100.00
29467;BME280;60968;37.490;-122.288;2023-07-20T15:18:58;98911.91;;;14.58;100.00
29467;BME280;60968;37.490;-122.288;2023-07-20T15:21:59;98911.25;;;14.80;100.00
29467;BME280;60968;37.490;-122.288;2023-07-20T15:25:00;98912.97;;;14.81;100.00
29467;BME280;60968;37.490;-122.288;2023-07-20T15:28:01;98922.44;;;14.85;100.00
29467;BME280;60968;37.490;-122.288;2023-07-20T15:31:03;98923.09;;;14.92;100.00
29467;BME280;60968;37.490;-122.288;2023-07-20T15:34:04;98927.25;;;14.99;100.00